sensor_id;sensor_type;location;lat;lon;timestamp;temperature;humidity
17341;DHT22;8788;49.930;8.660;2022-10-26T04:05:40;14.30;99.90
17341;DHT22;8788;49.930;8.660;2022-10-26T04:08:07;14.30;99.90
17341;DHT22;8788;49.930;8.660;2022-10-26T04:10:36;14.30;99.90
17341;DHT22;8788;49.930;8.660;2022-10-26T04:13:03;14.30;99.90
17341;DHT22;8788;49.930;8.660;2022-10-26T04:15:30;14.30;99.90
17341;DHT22;8788;49.930;8.660;2022-10-26T04:17:58;14.30;99.90
17341;DHT22;8788;49.930;8.660;2022-10-26T04:20:26;14.40;99.90
17341;DHT22;8788;49.930;8.660;2022-10-26T04:23:00;14.30;99.90
17341;DHT22;8788;49.930;8.660;2022-10-26T04:25:27;14.40;99.90
17341;DHT22;8788;49.930;8.660;2022-10-26T04:27:55;14.30;99.90
17341;DHT22;8788;49.930;8.660;2022-10-26T04:30:23;14.30;99.90
17341;DHT22;8788;49.930;8.660;2022-10-26T04:32:50;14.30;99.90
17341;DHT22;8788;49.930;8.660;2022-10-26T04:35:17;14.30;99.90
17341;DHT22;8788;49.930;8.660;2022-10-26T04:37:44;14.30;99.90
17341;DHT22;8788;49.930;8.660;2022-10-26T04:40:13;14.30;99.90
17341;DHT22;8788;49.930;8.660;2022-10-26T04:42:41;14.30;99.90
17341;DHT22;8788;49.930;8.660;2022-10-26T04:45:09;14.30;99.90
17341;DHT22;8788;49.930;8.660;2022-10-26T04:47:36;14.30;99.90
17341;DHT22;8788;49.930;8.660;2022-10-26T04:50:04;14.30;99.90
17341;DHT22;8788;49.930;8.660;2022-10-26T04:52:32;14.30;99.90
17341;DHT22;8788;49.930;8.660;2022-10-26T04:54:59;14.30;99.90
17341;DHT22;8788;49.930;8.660;2022-10-26T04:57:27;14.40;99.90
17341;DHT22;8788;49.930;8.660;2022-10-26T04:59:54;14.30;99.90
17341;DHT22;8788;49.930;8.660;2022-10-26T05:02:21;14.30;99.90
17341;DHT22;8788;49.930;8.660;2022-10-26T05:04:48;14.30;99.90
17341;DHT22;8788;49.930;8.660;2022-10-26T05:07:15;14.20;99.90
17341;DHT22;8788;49.930;8.660;2022-10-26T05:09:42;14.20;99.90
17341;DHT22;8788;49.930;8.660;2022-10-26T05:12:10;14.20;99.90
17341;DHT22;8788;49.930;8.660;2022-10-26T05:14:38;14.20;99.90
17341;DHT22;8788;49.930;8.660;2022-10-26T05:17:05;14.30;99.90
17341;DHT22;8788;49.930;8.660;2022-10-26T05:19:32;14.30;99.90
17341;DHT22;8788;49.930;8.660;2022-10-26T05:21:59;14.30;99.90
17341;DHT22;8788;49.930;8.660;2022-10-26T05:24:26;14.30;99.90
17341;DHT22;8788;49.930;8.660;2022-10-26T05:26:53;14.20;99.90
17341;DHT22;8788;49.930;8.660;2022-10-26T05:29:20;14.20;99.90
17341;DHT22;8788;49.930;8.660;2022-10-26T05:31:49;14.10;99.90
17341;DHT22;8788;49.930;8.660;2022-10-26T05:34:16;14.10;99.90
17341;DHT22;8788;49.930;8.660;2022-10-26T05:36:43;14.20;99.90
17341;DHT22;8788;49.930;8.660;2022-10-26T05:39:10;14.20;99.90
17341;DHT22;8788;49.930;8.660;2022-10-26T05:41:37;14.10;99.90
17341;DHT22;8788;49.930;8.660;2022-10-26T05:44:04;14.10;99.90
17341;DHT22;8788;49.930;8.660;2022-10-26T05:46:31;14.20;99.90
17341;DHT22;8788;49.930;8.660;2022-10-26T05:49:00;14.10;99.90
17341;DHT22;8788;49.930;8.660;2022-10-26T05:51:27;14.10;99.90
17341;DHT22;8788;49.930;8.660;2022-10-26T05:53:54;14.10;99.90
17341;DHT22;8788;49.930;8.660;2022-10-26T05:56:33;14.10;99.90
17341;DHT22;8788;49.930;8.660;2022-10-26T05:59:01;14.20;99.90
17341;DHT22;8788;49.930;8.660;2022-10-26T06:01:35;14.20;99.90
17341;DHT22;8788;49.930;8.660;2022-10-26T06:04:16;14.20;99.90
17341;DHT22;8788;49.930;8.660;2022-10-26T06:06:51;14.20;99.90
17341;DHT22;8788;49.930;8.660;2022-10-26T06:09:19;14.20;99.90
17341;DHT22;8788;49.930;8.660;2022-10-26T06:11:47;14.20;99.90
17341;DHT22;8788;49.930;8.660;2022-10-26T06:14:14;14.20;99.90
17341;DHT22;8788;49.930;8.660;2022-10-26T06:16:51;14.20;99.90
17341;DHT22;8788;49.930;8.660;2022-10-26T06:19:36;14.20;99.90
17341;DHT22;8788;49.930;8.660;2022-10-26T06:22:18;14.20;99.90
17341;DHT22;8788;49.930;8.660;2022-10-26T06:24:54;14.30;99.90
17341;DHT22;8788;49.930;8.660;2022-10-26T06:27:30;14.30;99.90
17341;DHT22;8788;49.930;8.660;2022-10-26T06:30:05;14.20;99.90
17341;DHT22;8788;49.930;8.660;2022-10-26T06:32:34;14.30;99.90
17341;DHT22;8788;49.930;8.660;2022-10-26T06:35:13;14.20;99.90
17341;DHT22;8788;49.930;8.660;2022-10-26T06:37:44;14.20;99.90
17341;DHT22;8788;49.930;8.660;2022-10-26T06:40:13;14.20;99.90
17341;DHT22;8788;49.930;8.660;2022-10-26T06:42:41;14.20;99.90
17341;DHT22;8788;49.930;8.660;2022-10-26T06:45:11;14.20;99.90
17341;DHT22;8788;49.930;8.660;2022-10-26T06:47:43;14.30;99.90
17341;DHT22;8788;49.930;8.660;2022-10-26T06:50:24;14.30;99.90
17341;DHT22;8788;49.930;8.660;2022-10-26T06:52:59;14.30;99.90
17341;DHT22;8788;49.930;8.660;2022-10-26T06:55:36;14.30;99.90
17341;DHT22;8788;49.930;8.660;2022-10-26T06:58:06;14.30;99.90
17341;DHT22;8788;49.930;8.660;2022-10-26T07:00:34;14.30;99.90
17341;DHT22;8788;49.930;8.660;2022-10-26T07:03:01;14.20;99.90
17341;DHT22;8788;49.930;8.660;2022-10-26T07:05:29;14.30;99.90
17341;DHT22;8788;49.930;8.660;2022-10-26T07:07:57;14.30;99.90
17341;DHT22;8788;49.930;8.660;2022-10-26T07:10:24;14.30;99.90
17341;DHT22;8788;49.930;8.660;2022-10-26T07:12:51;14.30;99.90
17341;DHT22;8788;49.930;8.660;2022-10-26T07:15:18;14.30;99.90
17341;DHT22;8788;49.930;8.660;2022-10-26T07:17:45;14.40;99.90
17341;DHT22;8788;49.930;8.660;2022-10-26T07:20:13;14.40;99.90
17341;DHT22;8788;49.930;8.660;2022-10-26T07:22:42;14.40;99.90
17341;DHT22;8788;49.930;8.660;2022-10-26T07:25:10;14.50;99.90
17341;DHT22;8788;49.930;8.660;2022-10-26T07:27:37;14.50;99.90
17341;DHT22;8788;49.930;8.660;2022-10-26T07:30:05;14.60;99.90
17341;DHT22;8788;49.930;8.660;2022-10-26T07:32:33;14.60;99.90
17341;DHT22;8788;49.930;8.660;2022-10-26T07:35:00;14.60;99.90
17341;DHT22;8788;49.930;8.660;2022-10-26T07:37:27;14.60;99.90
17341;DHT22;8788;49.930;8.660;2022-10-26T07:39:55;14.70;99.90
17341;DHT22;8788;49.930;8.660;2022-10-26T07:42:23;14.70;99.90
17341;DHT22;8788;49.930;8.660;2022-10-26T07:44:50;14.80;99.90
17341;DHT22;8788;49.930;8.660;2022-10-26T07:47:17;14.80;99.90
17341;DHT22;8788;49.930;8.660;2022-10-26T07:49:44;14.90;99.90
17341;DHT22;8788;49.930;8.660;2022-10-26T07:52:11;14.90;99.90
17341;DHT22;8788;49.930;8.660;2022-10-26T07:54:39;14.90;99.90
17341;DHT22;8788;49.930;8.660;2022-10-26T07:57:07;14.90;99.90
17341;DHT22;8788;49.930;8.660;2022-10-26T07:59:34;15.00;99.90
17341;DHT22;8788;49.930;8.660;2022-10-26T08:02:01;15.00;99.90
17341;DHT22;8788;49.930;8.660;2022-10-26T08:04:28;15.00;99.90
17341;DHT22;8788;49.930;8.660;2022-10-26T08:06:55;15.00;99.90
17341;DHT22;8788;49.930;8.660;2022-10-26T08:09:22;15.00;99.90
17341;DHT22;8788;49.930;8.660;2022-10-26T08:11:49;15.10;99.90
17341;DHT22;8788;49.930;8.660;2022-10-26T08:14:18;15.10;99.90
17341;DHT22;8788;49.930;8.660;2022-10-26T08:16:45;15.10;99.90
17341;DHT22;8788;49.930;8.660;2022-10-26T08:19:12;15.20;99.90
17341;DHT22;8788;49.930;8.660;2022-10-26T08:21:39;15.20;99.90
17341;DHT22;8788;49.930;8.660;2022-10-26T08:24:07;15.20;99.90
17341;DHT22;8788;49.930;8.660;2022-10-26T08:26:34;15.30;99.90
17341;DHT22;8788;49.930;8.660;2022-10-26T08:29:01;15.40;99.90
17341;DHT22;8788;49.930;8.660;2022-10-26T08:31:29;15.50;99.90
17341;DHT22;8788;49.930;8.660;2022-10-26T08:33:56;15.60;99.90
17341;DHT22;8788;49.930;8.660;2022-10-26T08:36:26;15.70;99.90
17341;DHT22;8788;49.930;8.660;2022-10-26T08:38:53;15.80;99.90
17341;DHT22;8788;49.930;8.660;2022-10-26T08:41:26;15.90;99.90
17341;DHT22;8788;49.930;8.660;2022-10-26T08:43:59;16.00;99.90
17341;DHT22;8788;49.930;8.660;2022-10-26T08:46:31;16.20;99.90
17341;DHT22;8788;49.930;8.660;2022-10-26T08:49:03;16.20;99.90
17341;DHT22;8788;49.930;8.660;2022-10-26T08:51:35;16.20;99.90
17341;DHT22;8788;49.930;8.660;2022-10-26T08:54:08;16.30;99.90
17341;DHT22;8788;49.930;8.660;2022-10-26T08:56:41;16.30;99.90
17341;DHT22;8788;49.930;8.660;2022-10-26T08:59:13;16.40;99.90
17341;DHT22;8788;49.930;8.660;2022-10-26T09:01:45;16.50;99.90
17341;DHT22;8788;49.930;8.660;2022-10-26T09:04:12;16.70;99.90
17341;DHT22;8788;49.930;8.660;2022-10-26T09:06:48;16.80;99.90
17341;DHT22;8788;49.930;8.660;2022-10-26T09:09:22;16.90;99.90
17341;DHT22;8788;49.930;8.660;2022-10-26T09:11:57;17.00;99.90
17341;DHT22;8788;49.930;8.660;2022-10-26T09:14:35;17.20;99.90
17341;DHT22;8788;49.930;8.660;2022-10-26T09:17:12;17.30;99.90
17341;DHT22;8788;49.930;8.660;2022-10-26T09:20:00;17.40;99.90
17341;DHT22;8788;49.930;8.660;2022-10-26T09:22:32;17.50;99.90
17341;DHT22;8788;49.930;8.660;2022-10-26T09:25:15;17.40;99.90
17341;DHT22;8788;49.930;8.660;2022-10-26T09:27:46;17.40;99.90
17341;DHT22;8788;49.930;8.660;2022-10-26T09:30:16;17.40;99.90
17341;DHT22;8788;49.930;8.660;2022-10-26T09:32:47;17.40;99.90
17341;DHT22;8788;49.930;8.660;2022-10-26T09:35:18;17.40;99.90
17341;DHT22;8788;49.930;8.660;2022-10-26T09:37:49;17.50;99.90
17341;DHT22;8788;49.930;8.660;2022-10-26T09:40:22;17.60;99.90
17341;DHT22;8788;49.930;8.660;2022-10-26T09:42:53;17.70;99.90
17341;DHT22;8788;49.930;8.660;2022-10-26T09:45:26;17.90;99.90
17341;DHT22;8788;49.930;8.660;2022-10-26T09:48:00;18.00;99.90
17341;DHT22;8788;49.930;8.660;2022-10-26T09:50:32;18.00;99.90
17341;DHT22;8788;49.930;8.660;2022-10-26T09:53:00;17.90;99.90
17341;DHT22;8788;49.930;8.660;2022-10-26T09:55:29;17.90;99.90
17341;DHT22;8788;49.930;8.660;2022-10-26T09:58:05;17.90;99.90
17341;DHT22;8788;49.930;8.660;2022-10-26T10:00:37;17.90;99.90
17341;DHT22;8788;49.930;8.660;2022-10-26T10:03:17;17.90;99.90
17341;DHT22;8788;49.930;8.660;2022-10-26T10:05:44;17.90;99.90
17341;DHT22;8788;49.930;8.660;2022-10-26T10:08:17;18.00;99.90
17341;DHT22;8788;49.930;8.660;2022-10-26T10:10:56;18.10;99.90
17341;DHT22;8788;49.930;8.660;2022-10-26T10:13:25;18.10;99.90
17341;DHT22;8788;49.930;8.660;2022-10-26T10:15:54;18.20;99.90
17341;DHT22;8788;49.930;8.660;2022-10-26T10:18:24;18.40;99.90
17341;DHT22;8788;49.930;8.660;2022-10-26T10:20:53;18.60;99.90
17341;DHT22;8788;49.930;8.660;2022-10-26T10:23:26;18.60;99.90
17341;DHT22;8788;49.930;8.660;2022-10-26T10:25:59;18.60;99.90
17341;DHT22;8788;49.930;8.660;2022-10-26T10:28:27;18.70;99.90
17341;DHT22;8788;49.930;8.660;2022-10-26T10:30:56;18.90;99.90
17341;DHT22;8788;49.930;8.660;2022-10-26T10:33:33;19.00;99.90
17341;DHT22;8788;49.930;8.660;2022-10-26T10:36:03;19.10;99.90
17341;DHT22;8788;49.930;8.660;2022-10-26T10:38:36;19.10;99.90
17341;DHT22;8788;49.930;8.660;2022-10-26T10:41:05;19.00;99.90
17341;DHT22;8788;49.930;8.660;2022-10-26T10:43:43;19.00;99.90
17341;DHT22;8788;49.930;8.660;2022-10-26T10:46:17;18.90;99.90
17341;DHT22;8788;49.930;8.660;2022-10-26T10:48:52;19.00;99.90
17341;DHT22;8788;49.930;8.660;2022-10-26T10:51:23;19.10;99.90
17341;DHT22;8788;49.930;8.660;2022-10-26T10:53:52;19.20;99.90
17341;DHT22;8788;49.930;8.660;2022-10-26T10:56:37;19.30;99.90
17341;DHT22;8788;49.930;8.660;2022-10-26T11:02:38;19.90;99.90
17341;DHT22;8788;49.930;8.660;2022-10-26T11:05:32;20.30;99.90
17341;DHT22;8788;49.930;8.660;2022-10-26T11:08:03;20.60;99.90
17341;DHT22;8788;49.930;8.660;2022-10-26T11:10:35;20.70;99.90
17341;DHT22;8788;49.930;8.660;2022-10-26T11:13:10;20.70;99.90
17341;DHT22;8788;49.930;8.660;2022-10-26T11:15:41;20.80;99.90
17341;DHT22;8788;49.930;8.660;2022-10-26T11:18:13;20.70;99.90
17341;DHT22;8788;49.930;8.660;2022-10-26T11:20:47;20.70;99.90
17341;DHT22;8788;49.930;8.660;2022-10-26T11:23:21;20.50;99.90
17341;DHT22;8788;49.930;8.660;2022-10-26T11:25:52;20.30;99.90
17341;DHT22;8788;49.930;8.660;2022-10-26T11:28:38;20.30;99.90
17341;DHT22;8788;49.930;8.660;2022-10-26T11:31:10;20.30;99.90
17341;DHT22;8788;49.930;8.660;2022-10-26T11:33:42;20.20;99.90
17341;DHT22;8788;49.930;8.660;2022-10-26T11:36:14;20.10;99.90
17341;DHT22;8788;49.930;8.660;2022-10-26T11:38:47;19.90;99.90
17341;DHT22;8788;49.930;8.660;2022-10-26T11:41:19;19.80;99.90
17341;DHT22;8788;49.930;8.660;2022-10-26T11:43:52;19.70;99.90
17341;DHT22;8788;49.930;8.660;2022-10-26T11:46:25;19.70;99.90
17341;DHT22;8788;49.930;8.660;2022-10-26T11:48:57;19.70;99.90
17341;DHT22;8788;49.930;8.660;2022-10-26T11:51:37;19.70;99.90
17341;DHT22;8788;49.930;8.660;2022-10-26T11:54:10;19.80;99.90
17341;DHT22;8788;49.930;8.660;2022-10-26T11:56:42;19.80;99.90
17341;DHT22;8788;49.930;8.660;2022-10-26T11:59:17;19.80;99.90
17341;DHT22;8788;49.930;8.660;2022-10-26T12:01:46;19.70;99.90
17341;DHT22;8788;49.930;8.660;2022-10-26T12:04:16;19.70;99.90
17341;DHT22;8788;49.930;8.660;2022-10-26T12:06:46;19.70;99.90
17341;DHT22;8788;49.930;8.660;2022-10-26T12:09:19;19.70;99.90
17341;DHT22;8788;49.930;8.660;2022-10-26T12:11:50;19.80;99.90
17341;DHT22;8788;49.930;8.660;2022-10-26T12:14:23;19.80;99.90
17341;DHT22;8788;49.930;8.660;2022-10-26T12:16:58;19.80;99.90
17341;DHT22;8788;49.930;8.660;2022-10-26T12:19:30;19.90;99.90
17341;DHT22;8788;49.930;8.660;2022-10-26T12:22:01;19.90;99.90
17341;DHT22;8788;49.930;8.660;2022-10-26T12:24:30;20.00;99.90
17341;DHT22;8788;49.930;8.660;2022-10-26T12:27:01;20.00;99.90
17341;DHT22;8788;49.930;8.660;2022-10-26T12:29:45;20.10;99.90
17341;DHT22;8788;49.930;8.660;2022-10-26T12:32:51;20.10;99.90
17341;DHT22;8788;49.930;8.660;2022-10-26T12:35:42;20.10;99.90
17341;DHT22;8788;49.930;8.660;2022-10-26T12:41:23;20.20;99.90
17341;DHT22;8788;49.930;8.660;2022-10-26T12:43:54;20.20;99.90
17341;DHT22;8788;49.930;8.660;2022-10-26T12:46:41;20.30;99.90
17341;DHT22;8788;49.930;8.660;2022-10-26T12:52:25;20.50;99.90
17341;DHT22;8788;49.930;8.660;2022-10-26T12:58:02;20.60;99.90
17341;DHT22;8788;49.930;8.660;2022-10-26T13:00:34;20.70;99.90
17341;DHT22;8788;49.930;8.660;2022-10-26T13:03:13;20.70;99.90
17341;DHT22;8788;49.930;8.660;2022-10-26T13:06:16;20.80;99.90
17341;DHT22;8788;49.930;8.660;2022-10-26T13:08:48;20.80;99.90
17341;DHT22;8788;49.930;8.660;2022-10-26T13:11:18;20.80;99.90
17341;DHT22;8788;49.930;8.660;2022-10-26T13:13:54;20.90;99.90
17341;DHT22;8788;49.930;8.660;2022-10-26T13:16:24;21.00;99.90
17341;DHT22;8788;49.930;8.660;2022-10-26T13:18:52;21.00;99.90
17341;DHT22;8788;49.930;8.660;2022-10-26T13:21:20;21.00;99.90
17341;DHT22;8788;49.930;8.660;2022-10-26T13:23:56;21.00;99.90
17341;DHT22;8788;49.930;8.660;2022-10-26T13:26:27;21.10;99.90
17341;DHT22;8788;49.930;8.660;2022-10-26T13:28:57;21.10;99.90
17341;DHT22;8788;49.930;8.660;2022-10-26T13:31:52;21.10;99.90
17341;DHT22;8788;49.930;8.660;2022-10-26T13:34:23;21.10;99.90
17341;DHT22;8788;49.930;8.660;2022-10-26T13:36:58;21.20;99.90
17341;DHT22;8788;49.930;8.660;2022-10-26T13:39:28;21.20;99.90
17341;DHT22;8788;49.930;8.660;2022-10-26T13:41:57;21.30;99.90
17341;DHT22;8788;49.930;8.660;2022-10-26T13:44:28;21.40;99.90
17341;DHT22;8788;49.930;8.660;2022-10-26T13:47:00;21.50;99.90
17341;DHT22;8788;49.930;8.660;2022-10-26T13:49:30;21.60;99.90
17341;DHT22;8788;49.930;8.660;2022-10-26T13:52:01;21.90;99.90
17341;DHT22;8788;49.930;8.660;2022-10-26T13:54:33;22.30;99.90
17341;DHT22;8788;49.930;8.660;2022-10-26T13:57:10;22.70;99.90
17341;DHT22;8788;49.930;8.660;2022-10-26T13:59:42;23.00;99.90
17341;DHT22;8788;49.930;8.660;2022-10-26T14:02:21;22.80;99.90
17341;DHT22;8788;49.930;8.660;2022-10-26T14:04:52;22.50;99.90
17341;DHT22;8788;49.930;8.660;2022-10-26T14:07:22;22.40;99.90
17341;DHT22;8788;49.930;8.660;2022-10-26T14:09:55;22.50;99.90
17341;DHT22;8788;49.930;8.660;2022-10-26T14:12:24;22.50;99.90
17341;DHT22;8788;49.930;8.660;2022-10-26T14:15:02;22.50;99.90
17341;DHT22;8788;49.930;8.660;2022-10-26T14:17:31;22.40;99.90
17341;DHT22;8788;49.930;8.660;2022-10-26T14:19:59;22.30;99.90
17341;DHT22;8788;49.930;8.660;2022-10-26T14:22:27;22.40;99.90
17341;DHT22;8788;49.930;8.660;2022-10-26T14:24:56;22.40;99.90
17341;DHT22;8788;49.930;8.660;2022-10-26T14:27:25;22.50;99.90
17341;DHT22;8788;49.930;8.660;2022-10-26T14:29:54;22.50;99.90
17341;DHT22;8788;49.930;8.660;2022-10-26T14:32:26;22.40;99.90
17341;DHT22;8788;49.930;8.660;2022-10-26T14:34:53;22.20;99.90
17341;DHT22;8788;49.930;8.660;2022-10-26T14:37:29;22.20;99.90
17341;DHT22;8788;49.930;8.660;2022-10-26T14:39:58;22.20;99.90
17341;DHT22;8788;49.930;8.660;2022-10-26T14:42:28;22.20;99.90
17341;DHT22;8788;49.930;8.660;2022-10-26T14:44:58;22.20;99.90
17341;DHT22;8788;49.930;8.660;2022-10-26T14:47:27;22.20;99.90
17341;DHT22;8788;49.930;8.660;2022-10-26T14:49:55;22.20;99.90
17341;DHT22;8788;49.930;8.660;2022-10-26T14:52:25;22.20;99.90
17341;DHT22;8788;49.930;8.660;2022-10-26T14:54:58;22.30;99.90
17341;DHT22;8788;49.930;8.660;2022-10-26T14:57:30;22.40;99.90
17341;DHT22;8788;49.930;8.660;2022-10-26T15:00:09;22.60;99.90
17341;DHT22;8788;49.930;8.660;2022-10-26T15:02:39;22.80;99.90
17341;DHT22;8788;49.930;8.660;2022-10-26T15:05:18;22.70;99.90
17341;DHT22;8788;49.930;8.660;2022-10-26T15:07:45;22.60;99.90
17341;DHT22;8788;49.930;8.660;2022-10-26T15:10:46;22.50;99.90
17341;DHT22;8788;49.930;8.660;2022-10-26T15:13:20;22.40;99.90
17341;DHT22;8788;49.930;8.660;2022-10-26T15:15:52;22.20;99.90
17341;DHT22;8788;49.930;8.660;2022-10-26T15:18:22;22.00;99.90
17341;DHT22;8788;49.930;8.660;2022-10-26T15:20:51;21.80;99.90
17341;DHT22;8788;49.930;8.660;2022-10-26T15:23:19;21.70;99.90
17341;DHT22;8788;49.930;8.660;2022-10-26T15:25:52;21.70;99.90
17341;DHT22;8788;49.930;8.660;2022-10-26T15:28:21;21.60;99.90
17341;DHT22;8788;49.930;8.660;2022-10-26T15:31:01;21.50;99.90
17341;DHT22;8788;49.930;8.660;2022-10-26T15:33:29;21.40;99.90
17341;DHT22;8788;49.930;8.660;2022-10-26T15:36:20;21.30;99.90
17341;DHT22;8788;49.930;8.660;2022-10-26T15:38:49;21.10;99.90
17341;DHT22;8788;49.930;8.660;2022-10-26T15:41:20;21.00;99.90
17341;DHT22;8788;49.930;8.660;2022-10-26T15:43:49;21.00;99.90
17341;DHT22;8788;49.930;8.660;2022-10-26T15:46:18;20.90;99.90
17341;DHT22;8788;49.930;8.660;2022-10-26T15:48:48;20.80;99.90
17341;DHT22;8788;49.930;8.660;2022-10-26T15:51:19;20.70;99.90
17341;DHT22;8788;49.930;8.660;2022-10-26T15:53:46;20.60;99.90
17341;DHT22;8788;49.930;8.660;2022-10-26T15:56:15;20.60;99.90
17341;DHT22;8788;49.930;8.660;2022-10-26T15:58:43;20.50;99.90
17341;DHT22;8788;49.930;8.660;2022-10-26T16:01:13;20.50;99.90
17341;DHT22;8788;49.930;8.660;2022-10-26T16:03:43;20.40;99.90
17341;DHT22;8788;49.930;8.660;2022-10-26T16:06:14;20.30;99.90
17341;DHT22;8788;49.930;8.660;2022-10-26T16:08:44;20.20;99.90
17341;DHT22;8788;49.930;8.660;2022-10-26T16:11:14;20.20;99.90
17341;DHT22;8788;49.930;8.660;2022-10-26T16:13:41;20.10;99.90
17341;DHT22;8788;49.930;8.660;2022-10-26T16:16:10;20.10;99.90
17341;DHT22;8788;49.930;8.660;2022-10-26T16:18:38;20.10;99.90
17341;DHT22;8788;49.930;8.660;2022-10-26T16:21:10;19.90;99.90
17341;DHT22;8788;49.930;8.660;2022-10-26T16:23:37;19.90;99.90
17341;DHT22;8788;49.930;8.660;2022-10-26T16:26:05;19.80;99.90
17341;DHT22;8788;49.930;8.660;2022-10-26T16:28:32;19.80;99.90
17341;DHT22;8788;49.930;8.660;2022-10-26T16:31:00;19.80;99.90
17341;DHT22;8788;49.930;8.660;2022-10-26T16:33:27;19.70;99.90
17341;DHT22;8788;49.930;8.660;2022-10-26T16:35:55;19.70;99.90
17341;DHT22;8788;49.930;8.660;2022-10-26T16:38:24;19.70;99.90
17341;DHT22;8788;49.930;8.660;2022-10-26T16:41:00;19.70;99.90
17341;DHT22;8788;49.930;8.660;2022-10-26T16:43:29;19.70;99.90
17341;DHT22;8788;49.930;8.660;2022-10-26T16:45:57;19.60;99.90
17341;DHT22;8788;49.930;8.660;2022-10-26T16:48:25;19.50;99.90
17341;DHT22;8788;49.930;8.660;2022-10-26T16:50:52;19.50;99.90
17341;DHT22;8788;49.930;8.660;2022-10-26T16:53:19;19.50;99.90
17341;DHT22;8788;49.930;8.660;2022-10-26T16:55:47;19.40;99.90
17341;DHT22;8788;49.930;8.660;2022-10-26T16:58:15;19.40;99.90
17341;DHT22;8788;49.930;8.660;2022-10-26T17:00:42;19.30;99.90
17341;DHT22;8788;49.930;8.660;2022-10-26T17:03:09;19.30;99.90
17341;DHT22;8788;49.930;8.660;2022-10-26T17:05:36;19.30;99.90
17341;DHT22;8788;49.930;8.660;2022-10-26T17:08:03;19.20;99.90
17341;DHT22;8788;49.930;8.660;2022-10-26T17:10:31;19.20;99.90
17341;DHT22;8788;49.930;8.660;2022-10-26T17:12:59;19.10;99.90
17341;DHT22;8788;49.930;8.660;2022-10-26T17:15:27;19.10;99.90
17341;DHT22;8788;49.930;8.660;2022-10-26T17:17:54;19.10;99.90
17341;DHT22;8788;49.930;8.660;2022-10-26T17:20:21;19.00;99.90
17341;DHT22;8788;49.930;8.660;2022-10-26T17:22:48;19.00;99.90
17341;DHT22;8788;49.930;8.660;2022-10-26T17:25:15;19.00;99.90
17341;DHT22;8788;49.930;8.660;2022-10-26T17:27:42;18.90;99.90
17341;DHT22;8788;49.930;8.660;2022-10-26T17:30:12;19.00;99.90
17341;DHT22;8788;49.930;8.660;2022-10-26T17:32:39;18.90;99.90
17341;DHT22;8788;49.930;8.660;2022-10-26T17:35:07;18.90;99.90
17341;DHT22;8788;49.930;8.660;2022-10-26T17:37:34;18.90;99.90
17341;DHT22;8788;49.930;8.660;2022-10-26T17:40:02;18.80;99.90
17341;DHT22;8788;49.930;8.660;2022-10-26T17:42:29;18.80;99.90
17341;DHT22;8788;49.930;8.660;2022-10-26T17:44:56;18.80;99.90
17341;DHT22;8788;49.930;8.660;2022-10-26T17:47:25;18.80;99.90
17341;DHT22;8788;49.930;8.660;2022-10-26T17:49:52;18.70;99.90
17341;DHT22;8788;49.930;8.660;2022-10-26T17:52:19;18.70;99.90
17341;DHT22;8788;49.930;8.660;2022-10-26T17:54:49;18.70;99.90
17341;DHT22;8788;49.930;8.660;2022-10-26T17:57:16;18.70;99.90
17341;DHT22;8788;49.930;8.660;2022-10-26T17:59:43;18.70;99.90
17341;DHT22;8788;49.930;8.660;2022-10-26T18:02:10;18.70;99.90
17341;DHT22;8788;49.930;8.660;2022-10-26T18:04:39;18.60;99.90
17341;DHT22;8788;49.930;8.660;2022-10-26T18:07:06;18.60;99.90
17341;DHT22;8788;49.930;8.660;2022-10-26T18:09:33;18.60;99.90
17341;DHT22;8788;49.930;8.660;2022-10-26T18:12:00;18.50;99.90
17341;DHT22;8788;49.930;8.660;2022-10-26T18:14:27;18.50;99.90
17341;DHT22;8788;49.930;8.660;2022-10-26T18:16:54;18.40;99.90
17341;DHT22;8788;49.930;8.660;2022-10-26T18:19:21;18.30;99.90
17341;DHT22;8788;49.930;8.660;2022-10-26T18:21:50;18.20;99.90
17341;DHT22;8788;49.930;8.660;2022-10-26T18:24:17;18.10;99.90
17341;DHT22;8788;49.930;8.660;2022-10-26T18:26:44;18.00;99.90
17341;DHT22;8788;49.930;8.660;2022-10-26T18:29:12;18.00;99.90
17341;DHT22;8788;49.930;8.660;2022-10-26T18:31:39;18.00;99.90
17341;DHT22;8788;49.930;8.660;2022-10-26T18:34:08;17.90;99.90
17341;DHT22;8788;49.930;8.660;2022-10-26T18:36:35;17.90;99.90
17341;DHT22;8788;49.930;8.660;2022-10-26T18:39:03;17.90;99.90
17341;DHT22;8788;49.930;8.660;2022-10-26T18:41:31;17.80;99.90
17341;DHT22;8788;49.930;8.660;2022-10-26T18:43:59;17.80;99.90
17341;DHT22;8788;49.930;8.660;2022-10-26T18:46:28;17.70;99.90
17341;DHT22;8788;49.930;8.660;2022-10-26T18:48:56;17.60;99.90
17341;DHT22;8788;49.930;8.660;2022-10-26T18:51:24;17.60;99.90
17341;DHT22;8788;49.930;8.660;2022-10-26T18:53:54;17.50;99.90
17341;DHT22;8788;49.930;8.660;2022-10-26T18:56:23;17.40;99.90
17341;DHT22;8788;49.930;8.660;2022-10-26T18:58:52;17.40;99.90
17341;DHT22;8788;49.930;8.660;2022-10-26T19:01:21;17.30;99.90
17341;DHT22;8788;49.930;8.660;2022-10-26T19:03:52;17.20;99.90
17341;DHT22;8788;49.930;8.660;2022-10-26T19:06:22;17.20;99.90
17341;DHT22;8788;49.930;8.660;2022-10-26T19:08:49;17.20;99.90
17341;DHT22;8788;49.930;8.660;2022-10-26T19:11:18;17.10;99.90
17341;DHT22;8788;49.930;8.660;2022-10-26T19:13:47;17.10;99.90
17341;DHT22;8788;49.930;8.660;2022-10-26T19:16:19;17.10;99.90
17341;DHT22;8788;49.930;8.660;2022-10-26T19:18:46;17.00;99.90
17341;DHT22;8788;49.930;8.660;2022-10-26T19:21:14;16.90;99.90
17341;DHT22;8788;49.930;8.660;2022-10-26T19:23:43;16.90;99.90
17341;DHT22;8788;49.930;8.660;2022-10-26T19:26:12;16.90;99.90
17341;DHT22;8788;49.930;8.660;2022-10-26T19:28:40;16.90;99.90
17341;DHT22;8788;49.930;8.660;2022-10-26T19:31:11;16.80;99.90
17341;DHT22;8788;49.930;8.660;2022-10-26T19:33:39;16.80;99.90
17341;DHT22;8788;49.930;8.660;2022-10-26T19:36:08;16.70;99.90
17341;DHT22;8788;49.930;8.660;2022-10-26T19:38:36;16.70;99.90
17341;DHT22;8788;49.930;8.660;2022-10-26T19:41:04;16.70;99.90
17341;DHT22;8788;49.930;8.660;2022-10-26T19:43:33;16.60;99.90
17341;DHT22;8788;49.930;8.660;2022-10-26T19:46:05;16.70;99.90
17341;DHT22;8788;49.930;8.660;2022-10-26T19:48:34;16.60;99.90
17341;DHT22;8788;49.930;8.660;2022-10-26T19:51:01;16.60;99.90
17341;DHT22;8788;49.930;8.660;2022-10-26T19:53:29;16.60;99.90
17341;DHT22;8788;49.930;8.660;2022-10-26T19:55:58;16.50;99.90
17341;DHT22;8788;49.930;8.660;2022-10-26T19:58:27;16.50;99.90
17341;DHT22;8788;49.930;8.660;2022-10-26T20:00:55;16.50;99.90
17341;DHT22;8788;49.930;8.660;2022-10-26T20:03:23;16.50;99.90
17341;DHT22;8788;49.930;8.660;2022-10-26T20:05:54;16.50;99.90
17341;DHT22;8788;49.930;8.660;2022-10-26T20:08:21;16.60;99.90
17341;DHT22;8788;49.930;8.660;2022-10-26T20:10:50;16.60;99.90
17341;DHT22;8788;49.930;8.660;2022-10-26T20:13:18;16.60;99.90
17341;DHT22;8788;49.930;8.660;2022-10-26T20:15:45;16.60;99.90
17341;DHT22;8788;49.930;8.660;2022-10-26T20:18:14;16.60;99.90
17341;DHT22;8788;49.930;8.660;2022-10-26T20:20:41;16.50;99.90
17341;DHT22;8788;49.930;8.660;2022-10-26T20:23:10;16.50;99.90